sensor_id;sensor_type;location;lat;lon;timestamp;pressure;altitude;pressure_sealevel;temperature;humidity
15794;BME280;7999;51.208;4.244;2022-10-03T00:02:29;102639.06;;;7.94;96.97
15794;BME280;7999;51.208;4.244;2022-10-03T00:05:05;102638.81;;;7.88;95.97
15794;BME280;7999;51.208;4.244;2022-10-03T00:07:40;102639.53;;;7.84;95.94
15794;BME280;7999;51.208;4.244;2022-10-03T00:10:17;102641.59;;;7.92;97.97
15794;BME280;7999;51.208;4.244;2022-10-03T00:12:50;102633.53;;;8.07;98.18
15794;BME280;7999;51.208;4.244;2022-10-03T00:15:22;102640.56;;;8.10;98.45
15794;BME280;7999;51.208;4.244;2022-10-03T00:17:53;102633.31;;;8.01;97.74
15794;BME280;7999;51.208;4.244;2022-10-03T00:20:37;102643.50;;;7.96;97.86
15794;BME280;7999;51.208;4.244;2022-10-03T00:23:07;102633.00;;;7.93;99.01
15794;BME280;7999;51.208;4.244;2022-10-03T00:25:38;102642.34;;;7.90;96.94
15794;BME280;7999;51.208;4.244;2022-10-03T00:28:11;102638.59;;;7.82;96.16
15794;BME280;7999;51.208;4.244;2022-10-03T00:30:45;102645.06;;;7.70;97.02
15794;BME280;7999;51.208;4.244;2022-10-03T00:33:16;102656.66;;;7.59;96.88
15794;BME280;7999;51.208;4.244;2022-10-03T00:36:01;102657.06;;;7.68;96.56
15794;BME280;7999;51.208;4.244;2022-10-03T00:38:45;102664.38;;;7.58;96.24
15794;BME280;7999;51.208;4.244;2022-10-03T00:41:20;102670.41;;;7.58;96.83
15794;BME280;7999;51.208;4.244;2022-10-03T00:46:59;102675.94;;;7.45;96.39
15794;BME280;7999;51.208;4.244;2022-10-03T00:52:28;102674.75;;;7.38;97.26
15794;BME280;7999;51.208;4.244;2022-10-03T00:55:05;102682.47;;;7.37;97.94
15794;BME280;7999;51.208;4.244;2022-10-03T00:57:41;102683.41;;;7.39;98.26
15794;BME280;7999;51.208;4.244;2022-10-03T01:00:15;102689.63;;;7.42;98.89
15794;BME280;7999;51.208;4.244;2022-10-03T01:02:48;102695.69;;;7.43;98.13
15794;BME280;7999;51.208;4.244;2022-10-03T01:05:22;102686.22;;;7.43;98.73
15794;BME280;7999;51.208;4.244;2022-10-03T01:08:05;102680.09;;;7.41;97.31
15794;BME280;7999;51.208;4.244;2022-10-03T01:10:37;102681.03;;;7.43;98.59
15794;BME280;7999;51.208;4.244;2022-10-03T01:13:13;102684.75;;;7.50;98.70
15794;BME280;7999;51.208;4.244;2022-10-03T01:15:46;102680.41;;;7.49;97.39
15794;BME280;7999;51.208;4.244;2022-10-03T01:18:21;102684.75;;;7.50;97.25
15794;BME280;7999;51.208;4.244;2022-10-03T01:20:53;102686.34;;;7.47;97.95
15794;BME280;7999;51.208;4.244;2022-10-03T01:23:30;102685.22;;;7.40;96.35
15794;BME280;7999;51.208;4.244;2022-10-03T01:26:09;102687.44;;;7.32;97.02
15794;BME280;7999;51.208;4.244;2022-10-03T01:28:46;102692.56;;;7.31;96.85
15794;BME280;7999;51.208;4.244;2022-10-03T01:31:34;102701.84;;;7.26;96.62
15794;BME280;7999;51.208;4.244;2022-10-03T01:34:06;102692.03;;;7.19;96.92
15794;BME280;7999;51.208;4.244;2022-10-03T01:36:37;102699.69;;;7.16;97.19
15794;BME280;7999;51.208;4.244;2022-10-03T01:39:08;102685.94;;;7.17;97.60
15794;BME280;7999;51.208;4.244;2022-10-03T01:41:42;102697.16;;;7.17;97.30
15794;BME280;7999;51.208;4.244;2022-10-03T01:44:15;102695.38;;;7.16;97.53
15794;BME280;7999;51.208;4.244;2022-10-03T01:46:45;102698.03;;;7.18;97.46
15794;BME280;7999;51.208;4.244;2022-10-03T01:49:16;102694.09;;;7.06;96.61
15794;BME280;7999;51.208;4.244;2022-10-03T01:51:48;102700.75;;;7.01;96.82
15794;BME280;7999;51.208;4.244;2022-10-03T01:54:19;102699.94;;;7.02;96.93
15794;BME280;7999;51.208;4.244;2022-10-03T01:56:51;102699.13;;;7.03;97.66
15794;BME280;7999;51.208;4.244;2022-10-03T01:59:21;102699.13;;;7.03;97.02
15794;BME280;7999;51.208;4.244;2022-10-03T02:01:51;102697.50;;;7.05;97.22
15794;BME280;7999;51.208;4.244;2022-10-03T02:04:27;102702.66;;;7.05;97.75
15794;BME280;7999;51.208;4.244;2022-10-03T02:06:59;102696.81;;;7.09;98.33
15794;BME280;7999;51.208;4.244;2022-10-03T02:09:33;102691.50;;;7.06;97.73
15794;BME280;7999;51.208;4.244;2022-10-03T02:12:08;102697.34;;;7.02;97.32
15794;BME280;7999;51.208;4.244;2022-10-03T02:14:44;102689.59;;;7.02;97.42
15794;BME280;7999;51.208;4.244;2022-10-03T02:17:17;102694.66;;;6.99;98.18
15794;BME280;7999;51.208;4.244;2022-10-03T02:19:48;102692.31;;;7.05;99.01
15794;BME280;7999;51.208;4.244;2022-10-03T02:22:27;102688.78;;;7.03;97.84
15794;BME280;7999;51.208;4.244;2022-10-03T02:24:56;102673.41;;;7.06;97.67
15794;BME280;7999;51.208;4.244;2022-10-03T02:27:36;102668.09;;;7.03;96.98
15794;BME280;7999;51.208;4.244;2022-10-03T02:30:17;102672.38;;;7.03;97.11
15794;BME280;7999;51.208;4.244;2022-10-03T02:32:51;102672.88;;;6.94;96.06
15794;BME280;7999;51.208;4.244;2022-10-03T02:35:25;102678.53;;;6.86;96.79
15794;BME280;7999;51.208;4.244;2022-10-03T02:40:52;102680.75;;;6.78;96.58
15794;BME280;7999;51.208;4.244;2022-10-03T02:46:25;102687.84;;;6.82;97.19
15794;BME280;7999;51.208;4.244;2022-10-03T02:49:09;102694.94;;;6.86;97.74
15794;BME280;7999;51.208;4.244;2022-10-03T02:54:34;102679.00;;;6.77;96.61
15794;BME280;7999;51.208;4.244;2022-10-03T02:57:15;102684.97;;;6.76;97.02
15794;BME280;7999;51.208;4.244;2022-10-03T02:59:58;102691.84;;;6.75;97.59
15794;BME280;7999;51.208;4.244;2022-10-03T03:02:50;102690.00;;;6.73;97.96
15794;BME280;7999;51.208;4.244;2022-10-03T03:05:32;102691.38;;;6.84;99.64
15794;BME280;7999;51.208;4.244;2022-10-03T03:08:17;102684.72;;;6.89;99.70
15794;BME280;7999;51.208;4.244;2022-10-03T03:19:17;102697.09;;;6.96;99.04
15794;BME280;7999;51.208;4.244;2022-10-03T03:21:56;102702.53;;;7.02;98.64
15794;BME280;7999;51.208;4.244;2022-10-03T03:27:29;102708.38;;;6.98;97.95
15794;BME280;7999;51.208;4.244;2022-10-03T03:30:01;102714.13;;;6.91;98.07
15794;BME280;7999;51.208;4.244;2022-10-03T03:32:35;102705.41;;;6.89;98.35
15794;BME280;7999;51.208;4.244;2022-10-03T03:35:09;102705.53;;;6.92;97.64
15794;BME280;7999;51.208;4.244;2022-10-03T03:37:43;102703.63;;;6.88;98.00
15794;BME280;7999;51.208;4.244;2022-10-03T03:40:19;102704.47;;;6.87;97.25
15794;BME280;7999;51.208;4.244;2022-10-03T03:43:01;102698.16;;;6.82;97.62
15794;BME280;7999;51.208;4.244;2022-10-03T03:45:34;102693.69;;;6.78;98.24
15794;BME280;7999;51.208;4.244;2022-10-03T03:48:12;102694.50;;;6.77;97.32
15794;BME280;7999;51.208;4.244;2022-10-03T03:50:49;102690.75;;;6.70;97.02
15794;BME280;7999;51.208;4.244;2022-10-03T03:53:39;102701.03;;;6.69;97.89
15794;BME280;7999;51.208;4.244;2022-10-03T03:58:58;102700.63;;;6.60;98.17
15794;BME280;7999;51.208;4.244;2022-10-03T04:01:35;102699.00;;;6.62;97.96
15794;BME280;7999;51.208;4.244;2022-10-03T04:04:11;102700.75;;;6.63;98.03
15794;BME280;7999;51.208;4.244;2022-10-03T04:06:45;102698.25;;;6.64;97.25
15794;BME280;7999;51.208;4.244;2022-10-03T04:09:19;102700.75;;;6.63;97.35
15794;BME280;7999;51.208;4.244;2022-10-03T04:11:53;102691.25;;;6.62;97.62
15794;BME280;7999;51.208;4.244;2022-10-03T04:17:17;102701.22;;;6.54;97.11
15794;BME280;7999;51.208;4.244;2022-10-03T04:20:10;102701.50;;;6.60;98.07
15794;BME280;7999;51.208;4.244;2022-10-03T04:25:37;102709.41;;;6.63;98.77
15794;BME280;7999;51.208;4.244;2022-10-03T04:28:15;102707.97;;;6.70;98.82
15794;BME280;7999;51.208;4.244;2022-10-03T04:30:53;102698.72;;;6.75;99.28
15794;BME280;7999;51.208;4.244;2022-10-03T04:33:26;102708.25;;;6.76;99.55
15794;BME280;7999;51.208;4.244;2022-10-03T04:38:48;102715.19;;;6.77;98.27
15794;BME280;7999;51.208;4.244;2022-10-03T04:41:25;102718.56;;;6.76;98.28
15794;BME280;7999;51.208;4.244;2022-10-03T04:43:57;102720.22;;;6.74;98.58
15794;BME280;7999;51.208;4.244;2022-10-03T04:46:26;102726.88;;;6.69;98.25
15794;BME280;7999;51.208;4.244;2022-10-03T04:48:58;102726.00;;;6.68;98.03
15794;BME280;7999;51.208;4.244;2022-10-03T04:51:33;102719.25;;;6.72;97.96
15794;BME280;7999;51.208;4.244;2022-10-03T04:54:09;102723.63;;;6.73;97.87
15794;BME280;7999;51.208;4.244;2022-10-03T04:56:43;102726.88;;;6.69;97.11
15794;BME280;7999;51.208;4.244;2022-10-03T05:02:03;102722.72;;;6.72;99.09
15794;BME280;7999;51.208;4.244;2022-10-03T05:04:34;102729.94;;;6.79;99.50
15794;BME280;7999;51.208;4.244;2022-10-03T05:07:05;102717.22;;;6.84;98.82
15794;BME280;7999;51.208;4.244;2022-10-03T05:09:38;102724.91;;;6.82;99.79
15794;BME280;7999;51.208;4.244;2022-10-03T05:12:11;102722.25;;;6.81;99.19
15794;BME280;7999;51.208;4.244;2022-10-03T05:14:48;102724.25;;;6.87;99.42
15794;BME280;7999;51.208;4.244;2022-10-03T05:17:23;102718.56;;;6.76;98.66
15794;BME280;7999;51.208;4.244;2022-10-03T05:20:10;102726.06;;;6.70;98.45
15794;BME280;7999;51.208;4.244;2022-10-03T05:22:43;102721.72;;;6.69;97.70
15794;BME280;7999;51.208;4.244;2022-10-03T05:25:21;102716.28;;;6.63;98.66
15794;BME280;7999;51.208;4.244;2022-10-03T05:27:57;102714.78;;;6.68;98.66
15794;BME280;7999;51.208;4.244;2022-10-03T05:30:33;102721.16;;;6.76;99.07
15794;BME280;7999;51.208;4.244;2022-10-03T05:33:02;102718.72;;;6.79;99.80
15794;BME280;7999;51.208;4.244;2022-10-03T05:35:36;102728.91;;;6.76;99.66
15794;BME280;7999;51.208;4.244;2022-10-03T05:38:24;102736.94;;;6.63;98.77
15794;BME280;7999;51.208;4.244;2022-10-03T05:40:59;102727.00;;;6.72;99.81
15794;BME280;7999;51.208;4.244;2022-10-03T05:43:33;102735.03;;;6.59;98.79
15794;BME280;7999;51.208;4.244;2022-10-03T05:46:09;102730.75;;;6.59;98.84
15794;BME280;7999;51.208;4.244;2022-10-03T05:48:42;102731.78;;;6.63;98.72
15794;BME280;7999;51.208;4.244;2022-10-03T05:51:36;102733.41;;;6.61;98.13
15794;BME280;7999;51.208;4.244;2022-10-03T05:54:13;102737.09;;;6.66;98.81
15794;BME280;7999;51.208;4.244;2022-10-03T05:56:59;102734.22;;;6.79;99.20
15794;BME280;7999;51.208;4.244;2022-10-03T05:59:46;102743.81;;;6.81;98.84
15794;BME280;7999;51.208;4.244;2022-10-03T06:02:34;102739.00;;;6.70;97.44
15794;BME280;7999;51.208;4.244;2022-10-03T06:05:21;102744.44;;;6.76;98.72
15794;BME280;7999;51.208;4.244;2022-10-03T06:07:56;102745.81;;;6.87;99.95
15794;BME280;7999;51.208;4.244;2022-10-03T06:10:33;102744.31;;;6.92;99.34
15794;BME280;7999;51.208;4.244;2022-10-03T06:13:09;102747.66;;;6.90;98.89
15794;BME280;7999;51.208;4.244;2022-10-03T06:15:49;102740.09;;;6.94;98.70
15794;BME280;7999;51.208;4.244;2022-10-03T06:21:19;102743.72;;;7.17;98.43
15794;BME280;7999;51.208;4.244;2022-10-03T06:26:39;102753.69;;;7.29;100.00
15794;BME280;7999;51.208;4.244;2022-10-03T06:32:01;102767.19;;;7.22;98.41
15794;BME280;7999;51.208;4.244;2022-10-03T06:34:45;102752.69;;;7.25;98.67
15794;BME280;7999;51.208;4.244;2022-10-03T06:37:30;102758.44;;;7.39;98.47
15794;BME280;7999;51.208;4.244;2022-10-03T06:40:21;102754.09;;;7.38;98.04
15794;BME280;7999;51.208;4.244;2022-10-03T06:42:55;102756.41;;;7.51;98.19
15794;BME280;7999;51.208;4.244;2022-10-03T06:48:15;102766.44;;;8.70;96.22
15794;BME280;7999;51.208;4.244;2022-10-03T06:50:52;102756.28;;;8.98;93.91
15794;BME280;7999;51.208;4.244;2022-10-03T06:53:29;102757.16;;;9.47;92.55
15794;BME280;7999;51.208;4.244;2022-10-03T06:58:52;102765.47;;;10.40;90.20
15794;BME280;7999;51.208;4.244;2022-10-03T07:04:24;102775.66;;;10.34;89.30
15794;BME280;7999;51.208;4.244;2022-10-03T07:09:46;102769.13;;;11.35;83.84
15794;BME280;7999;51.208;4.244;2022-10-03T07:12:28;102767.91;;;11.22;86.09
15794;BME280;7999;51.208;4.244;2022-10-03T07:15:07;102769.53;;;11.50;85.56
15794;BME280;7999;51.208;4.244;2022-10-03T07:17:42;102773.94;;;12.19;84.21
15794;BME280;7999;51.208;4.244;2022-10-03T07:20:29;102774.31;;;11.99;83.79
15794;BME280;7999;51.208;4.244;2022-10-03T07:23:15;102779.94;;;12.52;83.11
15794;BME280;7999;51.208;4.244;2022-10-03T07:25:51;102783.88;;;12.73;82.73
15794;BME280;7999;51.208;4.244;2022-10-03T07:28:30;102784.38;;;12.19;86.16
15794;BME280;7999;51.208;4.244;2022-10-03T07:31:06;102779.19;;;12.97;81.28
15794;BME280;7999;51.208;4.244;2022-10-03T07:36:27;102787.13;;;13.44;80.55
15794;BME280;7999;51.208;4.244;2022-10-03T07:39:17;102789.13;;;13.15;82.53
15794;BME280;7999;51.208;4.244;2022-10-03T07:50:13;102792.56;;;14.59;78.77
15794;BME280;7999;51.208;4.244;2022-10-03T07:52:58;102798.28;;;14.95;76.05
15794;BME280;7999;51.208;4.244;2022-10-03T07:55:44;102805.66;;;14.59;78.46
15794;BME280;7999;51.208;4.244;2022-10-03T07:58:21;102804.16;;;14.77;78.34
15794;BME280;7999;51.208;4.244;2022-10-03T08:00:58;102805.97;;;15.54;74.02
15794;BME280;7999;51.208;4.244;2022-10-03T08:03:48;102812.31;;;15.73;73.91
15794;BME280;7999;51.208;4.244;2022-10-03T08:06:20;102810.78;;;15.96;73.75
15794;BME280;7999;51.208;4.244;2022-10-03T08:08:57;102822.34;;;16.17;72.03
15794;BME280;7999;51.208;4.244;2022-10-03T08:11:32;102815.84;;;16.87;69.03
15794;BME280;7999;51.208;4.244;2022-10-03T08:14:10;102822.78;;;16.73;70.96
15794;BME280;7999;51.208;4.244;2022-10-03T08:16:48;102821.22;;;17.18;67.92
15794;BME280;7999;51.208;4.244;2022-10-03T08:19:23;102815.59;;;16.51;70.42
15794;BME280;7999;51.208;4.244;2022-10-03T08:21:57;102810.81;;;17.51;67.66
15794;BME280;7999;51.208;4.244;2022-10-03T08:24:32;102814.34;;;17.59;66.96
15794;BME280;7999;51.208;4.244;2022-10-03T08:27:30;102815.28;;;18.30;65.27
15794;BME280;7999;51.208;4.244;2022-10-03T08:30:09;102801.25;;;18.66;63.25
15794;BME280;7999;51.208;4.244;2022-10-03T08:32:55;102812.66;;;18.04;65.79
15794;BME280;7999;51.208;4.244;2022-10-03T08:46:29;102811.66;;;19.01;63.27
15794;BME280;7999;51.208;4.244;2022-10-03T08:49:05;;;;19.23;
15794;BME280;7999;51.208;4.244;2022-10-03T08:51:55;102812.03;;;19.90;59.78
15794;BME280;7999;51.208;4.244;2022-10-03T08:54:32;102803.53;;;19.45;63.68
15794;BME280;7999;51.208;4.244;2022-10-03T08:57:11;102806.56;;;20.15;59.58
15794;BME280;7999;51.208;4.244;2022-10-03T09:00:02;102802.97;;;20.22;57.91
15794;BME280;7999;51.208;4.244;2022-10-03T09:10:52;102787.03;;;19.07;62.32
15794;BME280;7999;51.208;4.244;2022-10-03T09:13:41;102785.81;;;20.67;56.91
15794;BME280;7999;51.208;4.244;2022-10-03T09:19:01;102789.09;;;19.98;58.69
15794;BME280;7999;51.208;4.244;2022-10-03T09:21:53;102781.44;;;21.35;55.20
15794;BME280;7999;51.208;4.244;2022-10-03T09:24:43;102774.72;;;21.08;54.72
15794;BME280;7999;51.208;4.244;2022-10-03T09:30:09;102781.19;;;20.00;59.34
15794;BME280;7999;51.208;4.244;2022-10-03T09:35:40;102775.06;;;19.93;57.40
15794;BME280;7999;51.208;4.244;2022-10-03T09:38:23;102783.44;;;20.41;57.07
15794;BME280;7999;51.208;4.244;2022-10-03T09:41:18;102782.97;;;19.95;57.15
15794;BME280;7999;51.208;4.244;2022-10-03T09:43:57;102771.25;;;21.03;55.36
15794;BME280;7999;51.208;4.244;2022-10-03T09:46:41;102761.19;;;22.39;52.23
15794;BME280;7999;51.208;4.244;2022-10-03T09:49:44;102779.91;;;20.42;56.23
15794;BME280;7999;51.208;4.244;2022-10-03T09:52:25;102780.69;;;21.84;53.44
15794;BME280;7999;51.208;4.244;2022-10-03T09:54:58;102772.50;;;20.75;56.41
15794;BME280;7999;51.208;4.244;2022-10-03T10:00:16;102772.41;;;21.50;54.25
15794;BME280;7999;51.208;4.244;2022-10-03T10:02:55;102775.84;;;21.56;52.06
15794;BME280;7999;51.208;4.244;2022-10-03T10:05:39;102770.22;;;21.76;52.82
15794;BME280;7999;51.208;4.244;2022-10-03T10:10:59;102766.59;;;23.21;47.79
15794;BME280;7999;51.208;4.244;2022-10-03T10:13:40;102762.75;;;23.72;47.34
15794;BME280;7999;51.208;4.244;2022-10-03T10:19:15;102769.75;;;21.50;51.24
15794;BME280;7999;51.208;4.244;2022-10-03T10:22:00;102754.19;;;23.61;46.77
15794;BME280;7999;51.208;4.244;2022-10-03T10:27:25;102753.47;;;23.53;47.79
15794;BME280;7999;51.208;4.244;2022-10-03T10:38:25;102756.63;;;19.89;54.46
15794;BME280;7999;51.208;4.244;2022-10-03T10:41:04;102762.41;;;19.06;56.55
15794;BME280;7999;51.208;4.244;2022-10-03T10:49:30;102750.22;;;18.92;56.07
15794;BME280;7999;51.208;4.244;2022-10-03T10:54:56;102745.56;;;20.44;51.08
15794;BME280;7999;51.208;4.244;2022-10-03T10:57:43;102754.97;;;20.67;53.15
15794;BME280;7999;51.208;4.244;2022-10-03T11:00:20;102750.59;;;19.74;54.90
15794;BME280;7999;51.208;4.244;2022-10-03T11:03:18;102749.00;;;20.49;52.96
15794;BME280;7999;51.208;4.244;2022-10-03T11:09:02;102754.16;;;19.66;54.15
15794;BME280;7999;51.208;4.244;2022-10-03T11:14:30;102763.19;;;21.75;51.91
15794;BME280;7999;51.208;4.244;2022-10-03T11:17:08;102750.06;;;21.09;50.97
15794;BME280;7999;51.208;4.244;2022-10-03T11:19:48;102754.09;;;21.35;51.72
15794;BME280;7999;51.208;4.244;2022-10-03T11:22:32;102753.22;;;20.66;50.90
15794;BME280;7999;51.208;4.244;2022-10-03T11:39:00;102745.81;;;18.94;52.36
15794;BME280;7999;51.208;4.244;2022-10-03T11:41:34;102745.13;;;18.15;55.34
15794;BME280;7999;51.208;4.244;2022-10-03T11:44:05;102745.06;;;18.43;54.93
15794;BME280;7999;51.208;4.244;2022-10-03T11:46:47;102742.47;;;18.21;53.44
15794;BME280;7999;51.208;4.244;2022-10-03T11:49:21;102746.00;;;18.14;54.55
15794;BME280;7999;51.208;4.244;2022-10-03T11:51:53;102744.16;;;18.50;54.97
15794;BME280;7999;51.208;4.244;2022-10-03T11:54:25;102737.03;;;18.84;54.47
15794;BME280;7999;51.208;4.244;2022-10-03T11:56:55;102736.31;;;18.36;56.65
15794;BME280;7999;51.208;4.244;2022-10-03T11:59:32;102738.94;;;18.26;56.64
15794;BME280;7999;51.208;4.244;2022-10-03T12:02:09;102741.47;;;18.61;57.19
15794;BME280;7999;51.208;4.244;2022-10-03T12:04:43;102735.38;;;18.51;56.80
15794;BME280;7999;51.208;4.244;2022-10-03T12:07:13;102744.22;;;18.38;57.29
15794;BME280;7999;51.208;4.244;2022-10-03T12:10:05;102740.63;;;18.72;55.96
15794;BME280;7999;51.208;4.244;2022-10-03T12:12:38;102738.34;;;19.63;53.09
15794;BME280;7999;51.208;4.244;2022-10-03T12:15:18;102731.50;;;19.31;51.52
15794;BME280;7999;51.208;4.244;2022-10-03T12:17:49;102733.47;;;19.00;53.57
15794;BME280;7999;51.208;4.244;2022-10-03T12:20:22;102728.38;;;18.42;52.94
15794;BME280;7999;51.208;4.244;2022-10-03T12:22:52;102724.78;;;18.74;53.86
15794;BME280;7999;51.208;4.244;2022-10-03T12:25:23;102727.47;;;18.63;53.77
15794;BME280;7999;51.208;4.244;2022-10-03T12:27:59;102715.16;;;18.71;54.76
15794;BME280;7999;51.208;4.244;2022-10-03T12:30:28;102708.94;;;18.81;54.24
15794;BME280;7999;51.208;4.244;2022-10-03T12:33:13;102714.31;;;18.51;54.45
15794;BME280;7999;51.208;4.244;2022-10-03T12:35:50;102712.66;;;18.13;54.85
15794;BME280;7999;51.208;4.244;2022-10-03T12:38:29;102706.47;;;18.31;55.28
15794;BME280;7999;51.208;4.244;2022-10-03T12:41:05;102707.34;;;18.26;54.83
15794;BME280;7999;51.208;4.244;2022-10-03T12:43:37;102709.91;;;18.50;55.68
15794;BME280;7999;51.208;4.244;2022-10-03T12:46:09;102710.75;;;18.61;54.95
15794;BME280;7999;51.208;4.244;2022-10-03T12:48:40;102712.53;;;18.65;55.35
15794;BME280;7999;51.208;4.244;2022-10-03T12:51:18;102709.00;;;18.69;55.35
15794;BME280;7999;51.208;4.244;2022-10-03T12:53:50;102701.88;;;18.87;54.63
15794;BME280;7999;51.208;4.244;2022-10-03T12:56:24;102701.16;;;18.63;53.73
15794;BME280;7999;51.208;4.244;2022-10-03T12:59:12;102705.41;;;18.86;55.07
15794;BME280;7999;51.208;4.244;2022-10-03T13:01:44;102702.75;;;18.87;53.45
15794;BME280;7999;51.208;4.244;2022-10-03T13:04:19;102705.41;;;18.92;53.81
15794;BME280;7999;51.208;4.244;2022-10-03T13:06:52;102696.63;;;18.83;52.86
15794;BME280;7999;51.208;4.244;2022-10-03T13:09:24;102703.81;;;18.31;53.75
15794;BME280;7999;51.208;4.244;2022-10-03T13:12:01;102696.72;;;18.62;53.01
15794;BME280;7999;51.208;4.244;2022-10-03T13:14:36;102698.50;;;18.51;54.10
15794;BME280;7999;51.208;4.244;2022-10-03T13:17:10;102694.00;;;18.80;53.28
15794;BME280;7999;51.208;4.244;2022-10-03T13:19:44;102693.22;;;18.66;52.68
15794;BME280;7999;51.208;4.244;2022-10-03T13:22:19;102698.53;;;18.42;53.93
15794;BME280;7999;51.208;4.244;2022-10-03T13:24:50;102696.88;;;18.13;52.62
15794;BME280;7999;51.208;4.244;2022-10-03T13:27:25;102701.22;;;18.20;52.76
15794;BME280;7999;51.208;4.244;2022-10-03T13:29:58;102696.75;;;18.50;51.15
15794;BME280;7999;51.208;4.244;2022-10-03T13:32:30;102695.06;;;18.28;51.72
15794;BME280;7999;51.208;4.244;2022-10-03T13:35:11;102689.88;;;17.76;54.57
15794;BME280;7999;51.208;4.244;2022-10-03T13:38:04;102696.03;;;17.87;56.17
15794;BME280;7999;51.208;4.244;2022-10-03T13:40:34;102687.22;;;18.15;55.00
15794;BME280;7999;51.208;4.244;2022-10-03T13:43:06;102672.22;;;18.42;55.85
15794;BME280;7999;51.208;4.244;2022-10-03T13:45:35;102675.66;;;18.65;55.04
15794;BME280;7999;51.208;4.244;2022-10-03T13:48:06;102675.75;;;18.38;55.17
15794;BME280;7999;51.208;4.244;2022-10-03T13:50:38;102673.97;;;18.41;56.63
15794;BME280;7999;51.208;4.244;2022-10-03T13:53:10;102667.84;;;18.30;55.37
15794;BME280;7999;51.208;4.244;2022-10-03T13:55:41;102656.41;;;18.43;55.57
15794;BME280;7999;51.208;4.244;2022-10-03T14:01:09;102653.88;;;18.07;55.14
15794;BME280;7999;51.208;4.244;2022-10-03T14:03:42;102645.97;;;18.14;55.65
15794;BME280;7999;51.208;4.244;2022-10-03T14:06:15;102645.03;;;18.26;54.84
15794;BME280;7999;51.208;4.244;2022-10-03T14:08:50;102647.72;;;18.08;56.03
15794;BME280;7999;51.208;4.244;2022-10-03T14:11:22;102635.53;;;17.69;57.93
15794;BME280;7999;51.208;4.244;2022-10-03T14:14:10;102641.66;;;17.75;56.54
15794;BME280;7999;51.208;4.244;2022-10-03T14:16:44;102638.94;;;18.07;55.84
15794;BME280;7999;51.208;4.244;2022-10-03T14:19:15;102632.00;;;17.85;55.05
15794;BME280;7999;51.208;4.244;2022-10-03T14:24:44;102617.97;;;17.66;58.27
15794;BME280;7999;51.208;4.244;2022-10-03T14:27:17;102612.72;;;17.83;57.00
15794;BME280;7999;51.208;4.244;2022-10-03T14:29:52;102607.41;;;17.98;56.64
15794;BME280;7999;51.208;4.244;2022-10-03T14:32:24;102613.53;;;18.02;54.83
15794;BME280;7999;51.208;4.244;2022-10-03T14:34:53;102611.81;;;17.95;54.84
15794;BME280;7999;51.208;4.244;2022-10-03T14:37:25;102607.44;;;17.86;56.06
15794;BME280;7999;51.208;4.244;2022-10-03T14:40:01;102619.69;;;17.99;56.22
15794;BME280;7999;51.208;4.244;2022-10-03T14:42:34;102614.41;;;18.02;55.83
15794;BME280;7999;51.208;4.244;2022-10-03T14:45:08;102607.47;;;17.74;55.41
15794;BME280;7999;51.208;4.244;2022-10-03T14:47:40;102601.31;;;17.84;55.85
15794;BME280;7999;51.208;4.244;2022-10-03T14:50:13;102607.44;;;17.80;54.09
15794;BME280;7999;51.208;4.244;2022-10-03T14:52:42;102603.06;;;17.85;55.72
15794;BME280;7999;51.208;4.244;2022-10-03T14:55:12;102604.84;;;17.68;56.50
15794;BME280;7999;51.208;4.244;2022-10-03T14:57:40;102596.91;;;17.78;56.67
15794;BME280;7999;51.208;4.244;2022-10-03T15:00:21;102582.91;;;17.84;55.52
15794;BME280;7999;51.208;4.244;2022-10-03T15:02:50;102580.28;;;17.55;56.14
15794;BME280;7999;51.208;4.244;2022-10-03T15:05:19;102590.81;;;17.23;56.97
15794;BME280;7999;51.208;4.244;2022-10-03T15:07:48;102582.03;;;17.45;56.60
15794;BME280;7999;51.208;4.244;2022-10-03T15:10:18;102572.38;;;17.49;56.96
15794;BME280;7999;51.208;4.244;2022-10-03T15:12:48;102582.03;;;17.24;58.24
15794;BME280;7999;51.208;4.244;2022-10-03T15:15:19;102587.31;;;17.22;58.10
15794;BME280;7999;51.208;4.244;2022-10-03T15:17:50;102588.19;;;17.20;58.07
15794;BME280;7999;51.208;4.244;2022-10-03T15:20:18;102583.81;;;17.28;58.38
15794;BME280;7999;51.208;4.244;2022-10-03T15:22:48;102586.44;;;17.16;57.93
15794;BME280;7999;51.208;4.244;2022-10-03T15:25:18;102583.78;;;17.23;58.52
15794;BME280;7999;51.208;4.244;2022-10-03T15:27:48;102578.56;;;17.26;57.98
15794;BME280;7999;51.208;4.244;2022-10-03T15:30:19;102568.03;;;17.16;59.09
15794;BME280;7999;51.208;4.244;2022-10-03T15:32:46;102555.78;;;17.16;59.34
15794;BME280;7999;51.208;4.244;2022-10-03T15:35:16;102548.78;;;17.06;58.50
15794;BME280;7999;51.208;4.244;2022-10-03T15:37:44;102555.78;;;17.07;59.25
15794;BME280;7999;51.208;4.244;2022-10-03T15:40:18;102571.53;;;17.07;59.79
15794;BME280;7999;51.208;4.244;2022-10-03T15:42:50;102560.16;;;17.34;59.73
15794;BME280;7999;51.208;4.244;2022-10-03T15:45:20;102563.66;;;17.30;58.54
15794;BME280;7999;51.208;4.244;2022-10-03T15:47:49;102557.50;;;17.23;59.40
15794;BME280;7999;51.208;4.244;2022-10-03T15:50:19;102550.50;;;17.16;60.94
15794;BME280;7999;51.208;4.244;2022-10-03T15:52:49;102554.91;;;17.10;60.83
15794;BME280;7999;51.208;4.244;2022-10-03T15:55:18;102556.63;;;16.95;60.67
15794;BME280;7999;51.208;4.244;2022-10-03T15:57:48;102554.03;;;17.00;60.59
15794;BME280;7999;51.208;4.244;2022-10-03T16:00:20;102554.00;;;16.86;61.63
15794;BME280;7999;51.208;4.244;2022-10-03T16:02:48;102557.50;;;16.90;60.62
15794;BME280;7999;51.208;4.244;2022-10-03T16:05:58;102550.50;;;16.74;61.14
15794;BME280;7999;51.208;4.244;2022-10-03T16:08:28;102554.88;;;16.91;61.32
15794;BME280;7999;51.208;4.244;2022-10-03T16:11:00;102555.75;;;16.83;61.68
15794;BME280;7999;51.208;4.244;2022-10-03T16:13:32;102540.88;;;16.92;61.58
15794;BME280;7999;51.208;4.244;2022-10-03T16:16:04;102542.63;;;16.86;62.36
15794;BME280;7999;51.208;4.244;2022-10-03T16:18:37;102538.25;;;16.79;62.59
15794;BME280;7999;51.208;4.244;2022-10-03T16:21:09;102539.13;;;16.73;62.84
15794;BME280;7999;51.208;4.244;2022-10-03T16:23:38;102539.94;;;16.55;63.73
15794;BME280;7999;51.208;4.244;2022-10-03T16:26:10;102542.59;;;16.66;63.58